sensor_id;sensor_type;location;lat;lon;timestamp;pressure;altitude;pressure_sealevel;temperature
60966;BMP180;46834;51.100;6.886;2022-08-27T00:01:50;101202.00;;;26.30
60966;BMP180;46834;51.100;6.886;2022-08-27T00:04:16;101205.00;;;26.30
60966;BMP180;46834;51.100;6.886;2022-08-27T00:06:42;101199.00;;;26.20
60966;BMP180;46834;51.100;6.886;2022-08-27T00:09:08;101208.00;;;26.20
60966;BMP180;46834;51.100;6.886;2022-08-27T00:11:34;101209.00;;;26.20
60966;BMP180;46834;51.100;6.886;2022-08-27T00:14:00;101209.00;;;26.20
60966;BMP180;46834;51.100;6.886;2022-08-27T00:16:26;101205.00;;;26.20
60966;BMP180;46834;51.100;6.886;2022-08-27T00:18:53;101197.00;;;26.10
60966;BMP180;46834;51.100;6.886;2022-08-27T00:21:20;101199.00;;;26.10
60966;BMP180;46834;51.100;6.886;2022-08-27T00:23:46;101194.00;;;26.10
60966;BMP180;46834;51.100;6.886;2022-08-27T00:26:14;101175.00;;;26.10
60966;BMP180;46834;51.100;6.886;2022-08-27T00:28:41;101186.00;;;26.10
60966;BMP180;46834;51.100;6.886;2022-08-27T00:31:08;101180.00;;;26.00
60966;BMP180;46834;51.100;6.886;2022-08-27T00:33:34;101195.00;;;26.00
60966;BMP180;46834;51.100;6.886;2022-08-27T00:36:01;101193.00;;;26.00
60966;BMP180;46834;51.100;6.886;2022-08-27T00:38:27;101200.00;;;26.00
60966;BMP180;46834;51.100;6.886;2022-08-27T00:40:53;101192.00;;;26.00
60966;BMP180;46834;51.100;6.886;2022-08-27T00:43:30;101193.00;;;25.90
60966;BMP180;46834;51.100;6.886;2022-08-27T00:46:06;101195.00;;;25.90
60966;BMP180;46834;51.100;6.886;2022-08-27T00:48:35;101193.00;;;25.90
60966;BMP180;46834;51.100;6.886;2022-08-27T00:51:02;101177.00;;;25.80
60966;BMP180;46834;51.100;6.886;2022-08-27T00:53:32;101187.00;;;25.80
60966;BMP180;46834;51.100;6.886;2022-08-27T00:56:09;101181.00;;;25.70
60966;BMP180;46834;51.100;6.886;2022-08-27T00:58:39;101189.00;;;25.70
60966;BMP180;46834;51.100;6.886;2022-08-27T01:01:11;101181.00;;;25.70
60966;BMP180;46834;51.100;6.886;2022-08-27T01:03:39;101196.00;;;25.70
60966;BMP180;46834;51.100;6.886;2022-08-27T01:06:09;101189.00;;;25.60
60966;BMP180;46834;51.100;6.886;2022-08-27T01:08:42;101193.00;;;25.60
60966;BMP180;46834;51.100;6.886;2022-08-27T01:11:08;101197.00;;;25.60
60966;BMP180;46834;51.100;6.886;2022-08-27T01:13:37;101199.00;;;25.60
60966;BMP180;46834;51.100;6.886;2022-08-27T01:16:05;101197.00;;;25.60
60966;BMP180;46834;51.100;6.886;2022-08-27T01:18:34;101193.00;;;25.60
60966;BMP180;46834;51.100;6.886;2022-08-27T01:21:31;101192.00;;;25.50
60966;BMP180;46834;51.100;6.886;2022-08-27T01:24:49;101197.00;;;25.50
60966;BMP180;46834;51.100;6.886;2022-08-27T01:27:23;101190.00;;;25.50
60966;BMP180;46834;51.100;6.886;2022-08-27T01:29:50;101186.00;;;25.50
60966;BMP180;46834;51.100;6.886;2022-08-27T01:32:28;101183.00;;;25.50
60966;BMP180;46834;51.100;6.886;2022-08-27T01:34:56;101189.00;;;25.50
60966;BMP180;46834;51.100;6.886;2022-08-27T01:37:24;101182.00;;;25.50
60966;BMP180;46834;51.100;6.886;2022-08-27T01:39:54;101173.00;;;25.50
60966;BMP180;46834;51.100;6.886;2022-08-27T01:42:37;101180.00;;;25.40
60966;BMP180;46834;51.100;6.886;2022-08-27T01:47:33;101182.00;;;25.40
60966;BMP180;46834;51.100;6.886;2022-08-27T01:50:03;101177.00;;;25.40
60966;BMP180;46834;51.100;6.886;2022-08-27T01:52:30;101183.00;;;25.40
60966;BMP180;46834;51.100;6.886;2022-08-27T01:54:56;101176.00;;;25.40
60966;BMP180;46834;51.100;6.886;2022-08-27T01:57:22;101168.00;;;25.40
60966;BMP180;46834;51.100;6.886;2022-08-27T01:59:48;101171.00;;;25.40
60966;BMP180;46834;51.100;6.886;2022-08-27T02:02:16;101175.00;;;25.40
60966;BMP180;46834;51.100;6.886;2022-08-27T02:04:43;101179.00;;;25.40
60966;BMP180;46834;51.100;6.886;2022-08-27T02:07:11;101166.00;;;25.40
60966;BMP180;46834;51.100;6.886;2022-08-27T02:09:37;101178.00;;;25.40
60966;BMP180;46834;51.100;6.886;2022-08-27T02:12:03;101171.00;;;25.40
60966;BMP180;46834;51.100;6.886;2022-08-27T02:14:29;101173.00;;;25.40
60966;BMP180;46834;51.100;6.886;2022-08-27T02:16:55;101177.00;;;25.40
60966;BMP180;46834;51.100;6.886;2022-08-27T02:19:22;101172.00;;;25.30
60966;BMP180;46834;51.100;6.886;2022-08-27T02:21:48;101169.00;;;25.30
60966;BMP180;46834;51.100;6.886;2022-08-27T02:24:15;101171.00;;;25.30
60966;BMP180;46834;51.100;6.886;2022-08-27T02:26:40;101169.00;;;25.30
60966;BMP180;46834;51.100;6.886;2022-08-27T02:29:07;101166.00;;;25.30
60966;BMP180;46834;51.100;6.886;2022-08-27T02:31:33;101161.00;;;25.30
60966;BMP180;46834;51.100;6.886;2022-08-27T02:33:59;101162.00;;;25.30
60966;BMP180;46834;51.100;6.886;2022-08-27T02:36:25;101157.00;;;25.30
60966;BMP180;46834;51.100;6.886;2022-08-27T02:38:51;101167.00;;;25.30
60966;BMP180;46834;51.100;6.886;2022-08-27T02:41:17;101160.00;;;25.30
60966;BMP180;46834;51.100;6.886;2022-08-27T02:43:43;101156.00;;;25.30
60966;BMP180;46834;51.100;6.886;2022-08-27T02:46:10;101161.00;;;25.30
60966;BMP180;46834;51.100;6.886;2022-08-27T02:48:38;101162.00;;;25.20
60966;BMP180;46834;51.100;6.886;2022-08-27T02:51:04;101157.00;;;25.20
60966;BMP180;46834;51.100;6.886;2022-08-27T02:53:32;101155.00;;;25.20
60966;BMP180;46834;51.100;6.886;2022-08-27T02:55:58;101147.00;;;25.20
60966;BMP180;46834;51.100;6.886;2022-08-27T02:58:24;101154.00;;;25.20
60966;BMP180;46834;51.100;6.886;2022-08-27T03:00:50;101155.00;;;25.20
60966;BMP180;46834;51.100;6.886;2022-08-27T03:03:16;101164.00;;;25.20
60966;BMP180;46834;51.100;6.886;2022-08-27T03:05:42;101148.00;;;25.20
60966;BMP180;46834;51.100;6.886;2022-08-27T03:08:08;101146.00;;;25.10
60966;BMP180;46834;51.100;6.886;2022-08-27T03:10:34;101150.00;;;25.10
60966;BMP180;46834;51.100;6.886;2022-08-27T03:13:00;101153.00;;;25.10
60966;BMP180;46834;51.100;6.886;2022-08-27T03:15:26;101153.00;;;25.10
60966;BMP180;46834;51.100;6.886;2022-08-27T03:17:52;101146.00;;;25.10
60966;BMP180;46834;51.100;6.886;2022-08-27T03:20:40;101149.00;;;25.10
60966;BMP180;46834;51.100;6.886;2022-08-27T03:23:08;101144.00;;;25.10
60966;BMP180;46834;51.100;6.886;2022-08-27T03:25:34;101135.00;;;25.10
60966;BMP180;46834;51.100;6.886;2022-08-27T03:28:00;101153.00;;;25.10
60966;BMP180;46834;51.100;6.886;2022-08-27T03:30:26;101153.00;;;25.10
60966;BMP180;46834;51.100;6.886;2022-08-27T03:32:52;101148.00;;;25.10
60966;BMP180;46834;51.100;6.886;2022-08-27T03:35:20;101152.00;;;25.10
60966;BMP180;46834;51.100;6.886;2022-08-27T03:37:47;101142.00;;;25.10
60966;BMP180;46834;51.100;6.886;2022-08-27T03:40:14;101146.00;;;25.00
60966;BMP180;46834;51.100;6.886;2022-08-27T03:42:41;101152.00;;;25.00
60966;BMP180;46834;51.100;6.886;2022-08-27T03:45:08;101140.00;;;25.00
60966;BMP180;46834;51.100;6.886;2022-08-27T03:47:36;101150.00;;;25.00
60966;BMP180;46834;51.100;6.886;2022-08-27T03:50:05;101155.00;;;25.00
60966;BMP180;46834;51.100;6.886;2022-08-27T03:52:33;101141.00;;;25.00
60966;BMP180;46834;51.100;6.886;2022-08-27T03:55:00;101126.00;;;25.00
60966;BMP180;46834;51.100;6.886;2022-08-27T03:57:26;101132.00;;;25.00
60966;BMP180;46834;51.100;6.886;2022-08-27T03:59:52;101140.00;;;25.00
60966;BMP180;46834;51.100;6.886;2022-08-27T04:02:18;101150.00;;;24.90
60966;BMP180;46834;51.100;6.886;2022-08-27T04:04:43;101140.00;;;24.90
60966;BMP180;46834;51.100;6.886;2022-08-27T04:07:09;101139.00;;;24.90
60966;BMP180;46834;51.100;6.886;2022-08-27T04:09:35;101138.00;;;24.90
60966;BMP180;46834;51.100;6.886;2022-08-27T04:12:01;101148.00;;;24.90
60966;BMP180;46834;51.100;6.886;2022-08-27T04:14:27;101155.00;;;24.90
60966;BMP180;46834;51.100;6.886;2022-08-27T04:16:55;101159.00;;;24.90
60966;BMP180;46834;51.100;6.886;2022-08-27T04:19:20;101161.00;;;24.90
60966;BMP180;46834;51.100;6.886;2022-08-27T04:21:46;101164.00;;;24.90
60966;BMP180;46834;51.100;6.886;2022-08-27T04:24:12;101163.00;;;24.90
60966;BMP180;46834;51.100;6.886;2022-08-27T04:26:39;101162.00;;;24.90
60966;BMP180;46834;51.100;6.886;2022-08-27T04:29:05;101165.00;;;24.80
60966;BMP180;46834;51.100;6.886;2022-08-27T04:31:31;101161.00;;;24.80
60966;BMP180;46834;51.100;6.886;2022-08-27T04:33:57;101173.00;;;24.80
60966;BMP180;46834;51.100;6.886;2022-08-27T04:36:23;101166.00;;;24.80
60966;BMP180;46834;51.100;6.886;2022-08-27T04:38:48;101165.00;;;24.80
60966;BMP180;46834;51.100;6.886;2022-08-27T04:41:14;101172.00;;;24.80
60966;BMP180;46834;51.100;6.886;2022-08-27T04:43:50;101177.00;;;24.80
60966;BMP180;46834;51.100;6.886;2022-08-27T04:46:34;101179.00;;;24.70
60966;BMP180;46834;51.100;6.886;2022-08-27T04:49:05;101184.00;;;24.70
60966;BMP180;46834;51.100;6.886;2022-08-27T04:51:31;101185.00;;;24.70
60966;BMP180;46834;51.100;6.886;2022-08-27T04:54:00;101181.00;;;24.70
60966;BMP180;46834;51.100;6.886;2022-08-27T04:56:27;101182.00;;;24.70
60966;BMP180;46834;51.100;6.886;2022-08-27T04:58:54;101179.00;;;24.70
60966;BMP180;46834;51.100;6.886;2022-08-27T05:01:24;101190.00;;;24.70
60966;BMP180;46834;51.100;6.886;2022-08-27T05:03:50;101194.00;;;24.70
60966;BMP180;46834;51.100;6.886;2022-08-27T05:06:17;101199.00;;;24.70
60966;BMP180;46834;51.100;6.886;2022-08-27T05:08:43;101193.00;;;24.70
60966;BMP180;46834;51.100;6.886;2022-08-27T05:11:13;101195.00;;;24.60
60966;BMP180;46834;51.100;6.886;2022-08-27T05:13:41;101198.00;;;24.60
60966;BMP180;46834;51.100;6.886;2022-08-27T05:16:11;101202.00;;;24.60
60966;BMP180;46834;51.100;6.886;2022-08-27T05:18:39;101198.00;;;24.60
60966;BMP180;46834;51.100;6.886;2022-08-27T05:21:05;101193.00;;;24.60
60966;BMP180;46834;51.100;6.886;2022-08-27T05:23:32;101202.00;;;24.60
60966;BMP180;46834;51.100;6.886;2022-08-27T05:25:59;101206.00;;;24.60
60966;BMP180;46834;51.100;6.886;2022-08-27T05:28:27;101207.00;;;24.50
60966;BMP180;46834;51.100;6.886;2022-08-27T05:31:02;101205.00;;;24.50
60966;BMP180;46834;51.100;6.886;2022-08-27T05:33:28;101205.00;;;24.50
60966;BMP180;46834;51.100;6.886;2022-08-27T05:35:57;101210.00;;;24.50
60966;BMP180;46834;51.100;6.886;2022-08-27T05:38:26;101194.00;;;24.50
60966;BMP180;46834;51.100;6.886;2022-08-27T05:41:13;101210.00;;;24.40
60966;BMP180;46834;51.100;6.886;2022-08-27T05:43:42;101201.00;;;24.40
60966;BMP180;46834;51.100;6.886;2022-08-27T05:46:12;101197.00;;;24.40
60966;BMP180;46834;51.100;6.886;2022-08-27T05:48:39;101203.00;;;24.40
60966;BMP180;46834;51.100;6.886;2022-08-27T05:53:37;101204.00;;;24.40
60966;BMP180;46834;51.100;6.886;2022-08-27T05:56:03;101209.00;;;24.40
60966;BMP180;46834;51.100;6.886;2022-08-27T05:58:29;101216.00;;;24.40
60966;BMP180;46834;51.100;6.886;2022-08-27T06:01:18;101207.00;;;24.30
60966;BMP180;46834;51.100;6.886;2022-08-27T06:03:44;101202.00;;;24.30
60966;BMP180;46834;51.100;6.886;2022-08-27T06:06:11;101203.00;;;24.30
60966;BMP180;46834;51.100;6.886;2022-08-27T06:08:37;101214.00;;;24.30
60966;BMP180;46834;51.100;6.886;2022-08-27T06:11:05;101208.00;;;24.30
60966;BMP180;46834;51.100;6.886;2022-08-27T06:13:34;101209.00;;;24.30
60966;BMP180;46834;51.100;6.886;2022-08-27T06:16:05;101207.00;;;24.30
60966;BMP180;46834;51.100;6.886;2022-08-27T06:18:33;101207.00;;;24.30
60966;BMP180;46834;51.100;6.886;2022-08-27T06:20:59;101210.00;;;24.30
60966;BMP180;46834;51.100;6.886;2022-08-27T06:23:25;101212.00;;;24.20
60966;BMP180;46834;51.100;6.886;2022-08-27T06:25:51;101214.00;;;24.20
60966;BMP180;46834;51.100;6.886;2022-08-27T06:28:22;101204.00;;;24.20
60966;BMP180;46834;51.100;6.886;2022-08-27T06:30:49;101219.00;;;24.20
60966;BMP180;46834;51.100;6.886;2022-08-27T06:33:15;101222.00;;;24.20
60966;BMP180;46834;51.100;6.886;2022-08-27T06:35:41;101216.00;;;24.20
60966;BMP180;46834;51.100;6.886;2022-08-27T06:38:07;101213.00;;;24.20
60966;BMP180;46834;51.100;6.886;2022-08-27T06:40:33;101216.00;;;24.20
60966;BMP180;46834;51.100;6.886;2022-08-27T06:43:00;101224.00;;;24.20
60966;BMP180;46834;51.100;6.886;2022-08-27T06:45:25;101229.00;;;24.20
60966;BMP180;46834;51.100;6.886;2022-08-27T06:47:51;101223.00;;;24.20
60966;BMP180;46834;51.100;6.886;2022-08-27T06:50:17;101220.00;;;24.20
60966;BMP180;46834;51.100;6.886;2022-08-27T06:52:45;101222.00;;;24.20
60966;BMP180;46834;51.100;6.886;2022-08-27T06:55:12;101222.00;;;24.20
60966;BMP180;46834;51.100;6.886;2022-08-27T06:57:37;101216.00;;;24.20
60966;BMP180;46834;51.100;6.886;2022-08-27T07:00:05;101220.00;;;24.20
60966;BMP180;46834;51.100;6.886;2022-08-27T07:02:32;101212.00;;;24.20
60966;BMP180;46834;51.100;6.886;2022-08-27T07:05:00;101212.00;;;24.20
60966;BMP180;46834;51.100;6.886;2022-08-27T07:07:26;101210.00;;;24.20
60966;BMP180;46834;51.100;6.886;2022-08-27T07:09:52;101220.00;;;24.20
60966;BMP180;46834;51.100;6.886;2022-08-27T07:12:18;101223.00;;;24.20
60966;BMP180;46834;51.100;6.886;2022-08-27T07:14:43;101211.00;;;24.20
60966;BMP180;46834;51.100;6.886;2022-08-27T07:17:09;101220.00;;;24.20
60966;BMP180;46834;51.100;6.886;2022-08-27T07:19:36;101220.00;;;24.20
60966;BMP180;46834;51.100;6.886;2022-08-27T07:22:04;101215.00;;;24.30
60966;BMP180;46834;51.100;6.886;2022-08-27T07:24:30;101207.00;;;24.30
60966;BMP180;46834;51.100;6.886;2022-08-27T07:26:56;101216.00;;;24.30
60966;BMP180;46834;51.100;6.886;2022-08-27T07:29:21;101210.00;;;24.30
60966;BMP180;46834;51.100;6.886;2022-08-27T07:31:47;101214.00;;;24.30
60966;BMP180;46834;51.100;6.886;2022-08-27T07:34:13;101225.00;;;24.30
60966;BMP180;46834;51.100;6.886;2022-08-27T07:36:39;101223.00;;;24.30
60966;BMP180;46834;51.100;6.886;2022-08-27T07:39:06;101218.00;;;24.30
60966;BMP180;46834;51.100;6.886;2022-08-27T07:41:33;101210.00;;;24.30
60966;BMP180;46834;51.100;6.886;2022-08-27T07:44:18;101217.00;;;24.30
60966;BMP180;46834;51.100;6.886;2022-08-27T07:46:53;101222.00;;;24.40
60966;BMP180;46834;51.100;6.886;2022-08-27T07:49:21;101228.00;;;24.40
60966;BMP180;46834;51.100;6.886;2022-08-27T07:51:48;101239.00;;;24.40
60966;BMP180;46834;51.100;6.886;2022-08-27T07:54:15;101223.00;;;24.40
60966;BMP180;46834;51.100;6.886;2022-08-27T07:56:41;101222.00;;;24.40
60966;BMP180;46834;51.100;6.886;2022-08-27T07:59:08;101230.00;;;24.40
60966;BMP180;46834;51.100;6.886;2022-08-27T08:01:34;101227.00;;;24.40
60966;BMP180;46834;51.100;6.886;2022-08-27T08:04:01;101227.00;;;24.40
60966;BMP180;46834;51.100;6.886;2022-08-27T08:06:27;101236.00;;;24.40
60966;BMP180;46834;51.100;6.886;2022-08-27T08:08:53;101231.00;;;24.40
60966;BMP180;46834;51.100;6.886;2022-08-27T08:11:19;101228.00;;;24.40
60966;BMP180;46834;51.100;6.886;2022-08-27T08:13:46;101236.00;;;24.40
60966;BMP180;46834;51.100;6.886;2022-08-27T08:16:13;101231.00;;;24.50
60966;BMP180;46834;51.100;6.886;2022-08-27T08:18:39;101233.00;;;24.50
60966;BMP180;46834;51.100;6.886;2022-08-27T08:21:09;101240.00;;;24.40
60966;BMP180;46834;51.100;6.886;2022-08-27T08:23:36;101240.00;;;24.40
60966;BMP180;46834;51.100;6.886;2022-08-27T08:26:04;101235.00;;;24.50
60966;BMP180;46834;51.100;6.886;2022-08-27T08:28:30;101243.00;;;24.50
60966;BMP180;46834;51.100;6.886;2022-08-27T08:30:57;101248.00;;;24.50
60966;BMP180;46834;51.100;6.886;2022-08-27T08:33:24;101249.00;;;24.50
60966;BMP180;46834;51.100;6.886;2022-08-27T08:35:49;101252.00;;;24.50
60966;BMP180;46834;51.100;6.886;2022-08-27T08:38:17;101250.00;;;24.50
60966;BMP180;46834;51.100;6.886;2022-08-27T08:40:48;101252.00;;;24.60
60966;BMP180;46834;51.100;6.886;2022-08-27T08:43:33;101259.00;;;24.50
60966;BMP180;46834;51.100;6.886;2022-08-27T08:46:28;101257.00;;;24.60
60966;BMP180;46834;51.100;6.886;2022-08-27T08:49:12;101258.00;;;24.60
60966;BMP180;46834;51.100;6.886;2022-08-27T08:51:42;101260.00;;;24.70
60966;BMP180;46834;51.100;6.886;2022-08-27T08:54:21;101244.00;;;24.60
60966;BMP180;46834;51.100;6.886;2022-08-27T08:57:19;101263.00;;;24.60
60966;BMP180;46834;51.100;6.886;2022-08-27T09:00:00;101260.00;;;24.60
60966;BMP180;46834;51.100;6.886;2022-08-27T09:02:27;101259.00;;;24.70
60966;BMP180;46834;51.100;6.886;2022-08-27T09:05:03;101266.00;;;24.70
60966;BMP180;46834;51.100;6.886;2022-08-27T09:07:42;101263.00;;;24.70
60966;BMP180;46834;51.100;6.886;2022-08-27T09:10:32;101275.00;;;24.70
60966;BMP180;46834;51.100;6.886;2022-08-27T09:13:02;101258.00;;;24.80
60966;BMP180;46834;51.100;6.886;2022-08-27T09:15:34;101271.00;;;24.80
60966;BMP180;46834;51.100;6.886;2022-08-27T09:18:14;101268.00;;;24.80
60966;BMP180;46834;51.100;6.886;2022-08-27T09:20:46;101276.00;;;24.90
60966;BMP180;46834;51.100;6.886;2022-08-27T09:23:29;101267.00;;;24.90
60966;BMP180;46834;51.100;6.886;2022-08-27T09:25:56;101270.00;;;24.90
60966;BMP180;46834;51.100;6.886;2022-08-27T09:28:28;101278.00;;;24.90
60966;BMP180;46834;51.100;6.886;2022-08-27T09:31:19;101274.00;;;24.90
60966;BMP180;46834;51.100;6.886;2022-08-27T09:33:45;101278.00;;;25.00
60966;BMP180;46834;51.100;6.886;2022-08-27T09:36:15;101279.00;;;25.00
60966;BMP180;46834;51.100;6.886;2022-08-27T09:38:54;101273.00;;;25.00
60966;BMP180;46834;51.100;6.886;2022-08-27T09:41:31;101275.00;;;25.00
60966;BMP180;46834;51.100;6.886;2022-08-27T09:44:07;101281.00;;;25.00
60966;BMP180;46834;51.100;6.886;2022-08-27T09:46:33;101284.00;;;25.10
60966;BMP180;46834;51.100;6.886;2022-08-27T09:49:14;101278.00;;;25.00
60966;BMP180;46834;51.100;6.886;2022-08-27T09:51:43;101283.00;;;25.10
60966;BMP180;46834;51.100;6.886;2022-08-27T09:54:44;101278.00;;;25.00
60966;BMP180;46834;51.100;6.886;2022-08-27T09:57:11;101289.00;;;25.10
60966;BMP180;46834;51.100;6.886;2022-08-27T09:59:50;101280.00;;;25.00
60966;BMP180;46834;51.100;6.886;2022-08-27T10:02:22;101290.00;;;25.10
60966;BMP180;46834;51.100;6.886;2022-08-27T10:05:01;101281.00;;;25.00
60966;BMP180;46834;51.100;6.886;2022-08-27T10:07:46;101281.00;;;25.00
60966;BMP180;46834;51.100;6.886;2022-08-27T10:13:22;101284.00;;;25.00
60966;BMP180;46834;51.100;6.886;2022-08-27T10:16:40;101275.00;;;25.00
60966;BMP180;46834;51.100;6.886;2022-08-27T10:22:06;101290.00;;;25.10
60966;BMP180;46834;51.100;6.886;2022-08-27T10:25:06;101284.00;;;25.10
60966;BMP180;46834;51.100;6.886;2022-08-27T10:28:07;101284.00;;;25.10
60966;BMP180;46834;51.100;6.886;2022-08-27T10:31:10;101289.00;;;25.10
60966;BMP180;46834;51.100;6.886;2022-08-27T10:34:05;101283.00;;;25.10
60966;BMP180;46834;51.100;6.886;2022-08-27T10:36:45;101277.00;;;25.20
60966;BMP180;46834;51.100;6.886;2022-08-27T10:43:25;101266.00;;;25.10
60966;BMP180;46834;51.100;6.886;2022-08-27T10:46:26;101276.00;;;25.20
60966;BMP180;46834;51.100;6.886;2022-08-27T10:52:24;101280.00;;;25.20
60966;BMP180;46834;51.100;6.886;2022-08-27T10:55:21;101278.00;;;25.20
60966;BMP180;46834;51.100;6.886;2022-08-27T10:58:05;101284.00;;;25.20
60966;BMP180;46834;51.100;6.886;2022-08-27T11:00:40;101285.00;;;25.30
60966;BMP180;46834;51.100;6.886;2022-08-27T11:03:29;101284.00;;;25.30
60966;BMP180;46834;51.100;6.886;2022-08-27T11:06:13;101280.00;;;25.40
60966;BMP180;46834;51.100;6.886;2022-08-27T11:08:45;101287.00;;;25.40
60966;BMP180;46834;51.100;6.886;2022-08-27T11:11:47;101278.00;;;25.40
60966;BMP180;46834;51.100;6.886;2022-08-27T11:14:28;101279.00;;;25.40
60966;BMP180;46834;51.100;6.886;2022-08-27T11:17:04;101277.00;;;25.50
60966;BMP180;46834;51.100;6.886;2022-08-27T11:20:03;101274.00;;;25.50
60966;BMP180;46834;51.100;6.886;2022-08-27T11:22:39;101283.00;;;25.50
60966;BMP180;46834;51.100;6.886;2022-08-27T11:25:33;101279.00;;;25.50
60966;BMP180;46834;51.100;6.886;2022-08-27T11:28:03;101279.00;;;25.60
60966;BMP180;46834;51.100;6.886;2022-08-27T11:33:37;101272.00;;;25.60
60966;BMP180;46834;51.100;6.886;2022-08-27T11:39:11;101265.00;;;25.70
60966;BMP180;46834;51.100;6.886;2022-08-27T11:45:07;101270.00;;;25.70
60966;BMP180;46834;51.100;6.886;2022-08-27T11:47:35;101275.00;;;25.80
60966;BMP180;46834;51.100;6.886;2022-08-27T11:50:06;101279.00;;;25.80
60966;BMP180;46834;51.100;6.886;2022-08-27T11:55:30;101279.00;;;25.90
60966;BMP180;46834;51.100;6.886;2022-08-27T11:58:08;101270.00;;;25.90
60966;BMP180;46834;51.100;6.886;2022-08-27T12:00:40;101281.00;;;26.00
60966;BMP180;46834;51.100;6.886;2022-08-27T12:06:09;101273.00;;;26.10
60966;BMP180;46834;51.100;6.886;2022-08-27T12:08:35;101280.00;;;26.10
60966;BMP180;46834;51.100;6.886;2022-08-27T12:11:19;101273.00;;;26.20
60966;BMP180;46834;51.100;6.886;2022-08-27T12:14:35;101270.00;;;26.10
60966;BMP180;46834;51.100;6.886;2022-08-27T12:17:32;101277.00;;;26.20
60966;BMP180;46834;51.100;6.886;2022-08-27T12:20:25;101280.00;;;26.20
60966;BMP180;46834;51.100;6.886;2022-08-27T12:26:12;101269.00;;;26.30
60966;BMP180;46834;51.100;6.886;2022-08-27T12:28:40;101273.00;;;26.40
60966;BMP180;46834;51.100;6.886;2022-08-27T12:31:06;101265.00;;;26.40
60966;BMP180;46834;51.100;6.886;2022-08-27T12:33:41;101269.00;;;26.40
60966;BMP180;46834;51.100;6.886;2022-08-27T12:36:19;101269.00;;;26.50
60966;BMP180;46834;51.100;6.886;2022-08-27T12:38:58;101265.00;;;26.50
60966;BMP180;46834;51.100;6.886;2022-08-27T12:41:33;101267.00;;;26.50
60966;BMP180;46834;51.100;6.886;2022-08-27T12:44:08;101272.00;;;26.60
60966;BMP180;46834;51.100;6.886;2022-08-27T12:47:01;101270.00;;;26.50
60966;BMP180;46834;51.100;6.886;2022-08-27T12:49:50;101265.00;;;26.60
60966;BMP180;46834;51.100;6.886;2022-08-27T12:58:46;101259.00;;;26.70
60966;BMP180;46834;51.100;6.886;2022-08-27T13:01:41;101263.00;;;26.70
60966;BMP180;46834;51.100;6.886;2022-08-27T13:04:22;101265.00;;;26.70
60966;BMP180;46834;51.100;6.886;2022-08-27T13:06:48;101258.00;;;26.80
60966;BMP180;46834;51.100;6.886;2022-08-27T13:09:14;101252.00;;;26.90
60966;BMP180;46834;51.100;6.886;2022-08-27T13:11:48;101251.00;;;26.90
60966;BMP180;46834;51.100;6.886;2022-08-27T13:14:23;101247.00;;;27.00
60966;BMP180;46834;51.100;6.886;2022-08-27T13:16:52;101246.00;;;27.00
60966;BMP180;46834;51.100;6.886;2022-08-27T13:19:30;101246.00;;;27.00
60966;BMP180;46834;51.100;6.886;2022-08-27T13:21:56;101236.00;;;27.10
60966;BMP180;46834;51.100;6.886;2022-08-27T13:24:34;101246.00;;;27.10
60966;BMP180;46834;51.100;6.886;2022-08-27T13:27:04;101246.00;;;27.20
60966;BMP180;46834;51.100;6.886;2022-08-27T13:29:31;101239.00;;;27.20
60966;BMP180;46834;51.100;6.886;2022-08-27T13:31:59;101248.00;;;27.20
60966;BMP180;46834;51.100;6.886;2022-08-27T13:34:26;101237.00;;;27.30
60966;BMP180;46834;51.100;6.886;2022-08-27T13:37:04;101240.00;;;27.30
60966;BMP180;46834;51.100;6.886;2022-08-27T13:39:35;101242.00;;;27.30
60966;BMP180;46834;51.100;6.886;2022-08-27T13:42:05;101247.00;;;27.40
60966;BMP180;46834;51.100;6.886;2022-08-27T13:44:36;101246.00;;;27.40
60966;BMP180;46834;51.100;6.886;2022-08-27T13:47:08;101236.00;;;27.40
60966;BMP180;46834;51.100;6.886;2022-08-27T13:49:39;101244.00;;;27.40
60966;BMP180;46834;51.100;6.886;2022-08-27T13:54:45;101235.00;;;27.40
60966;BMP180;46834;51.100;6.886;2022-08-27T13:57:29;101237.00;;;27.40
60966;BMP180;46834;51.100;6.886;2022-08-27T14:00:18;101239.00;;;27.40
60966;BMP180;46834;51.100;6.886;2022-08-27T14:02:46;101243.00;;;27.40
60966;BMP180;46834;51.100;6.886;2022-08-27T14:05:29;101233.00;;;27.40
60966;BMP180;46834;51.100;6.886;2022-08-27T14:08:10;101233.00;;;27.40
60966;BMP180;46834;51.100;6.886;2022-08-27T14:10:40;101235.00;;;27.40
60966;BMP180;46834;51.100;6.886;2022-08-27T14:15:46;101237.00;;;27.40
60966;BMP180;46834;51.100;6.886;2022-08-27T14:18:28;101245.00;;;27.40
60966;BMP180;46834;51.100;6.886;2022-08-27T14:20:57;101242.00;;;27.50
60966;BMP180;46834;51.100;6.886;2022-08-27T14:23:24;101243.00;;;27.50
60966;BMP180;46834;51.100;6.886;2022-08-27T14:25:56;101245.00;;;27.50
60966;BMP180;46834;51.100;6.886;2022-08-27T14:28:22;101234.00;;;27.50
60966;BMP180;46834;51.100;6.886;2022-08-27T14:30:49;101246.00;;;27.50
60966;BMP180;46834;51.100;6.886;2022-08-27T14:33:15;101240.00;;;27.50
60966;BMP180;46834;51.100;6.886;2022-08-27T14:35:43;101238.00;;;27.50
60966;BMP180;46834;51.100;6.886;2022-08-27T14:38:21;101242.00;;;27.40
60966;BMP180;46834;51.100;6.886;2022-08-27T14:40:51;101243.00;;;27.50
60966;BMP180;46834;51.100;6.886;2022-08-27T14:43:18;101235.00;;;27.50
60966;BMP180;46834;51.100;6.886;2022-08-27T14:45:46;101233.00;;;27.50
60966;BMP180;46834;51.100;6.886;2022-08-27T14:48:18;101237.00;;;27.40
60966;BMP180;46834;51.100;6.886;2022-08-27T14:50:45;101233.00;;;27.50
60966;BMP180;46834;51.100;6.886;2022-08-27T14:53:11;101231.00;;;27.50
60966;BMP180;46834;51.100;6.886;2022-08-27T14:55:37;101236.00;;;27.50
60966;BMP180;46834;51.100;6.886;2022-08-27T14:58:03;101241.00;;;27.40
60966;BMP180;46834;51.100;6.886;2022-08-27T15:00:28;101237.00;;;27.40
60966;BMP180;46834;51.100;6.886;2022-08-27T15:02:56;101245.00;;;27.40
60966;BMP180;46834;51.100;6.886;2022-08-27T15:05:24;101239.00;;;27.40
60966;BMP180;46834;51.100;6.886;2022-08-27T15:07:53;101238.00;;;27.40
60966;BMP180;46834;51.100;6.886;2022-08-27T15:10:20;101230.00;;;27.40